メインページ
METAR-TAF:

METAR-TAF

空港 :

クチン国際空港

クチン, マレーシア

緯度: 01-29N, 経度: 110-20E, 海抜: 27m

現時点の気象観測

当レポートは30分前の12:00(UTC)に作成
変向風 3kt
気温 29°C
湿度 84%
気圧 1010 hPa
視程10km以上
高度1500ftの雲はほとんどない, 積乱雲.
激しい雷雨,

METAR: WBGG 201200Z VRB03KT 9999 TS FEW015CB 29/26 Q1010 NOSIG

時間: 20:30 (12:30 UTC)

予報

当レポートは1時間30分前の11:00(UTC)に作成
予報は20日の 12時(UTC)から 21日の 12時(UTC)まで有効
変向風 3kt
視程10km以上
高度2000ftの雲はほとんどない
20日の 12時(UTC)から 20日の 16時(UTC)まで一時的に
北/北西の風 8kt
視程: 4000m
高度1500ftの雲はほとんどない, 積乱雲.
高度1800ftの雲は散在している
激しい雷雨, 雨,

TAF: WBGG 201100Z 2012/2112 VRB03KT 9999 FEW020 TEMPO 2012/2016 34008KT 4000 TSRA FEW015CB SCT018

4,000以上の空港の気象観測と天気予報(METAR報とTAF報)

利用可能な観測所は地図上に黄色い丸と赤い丸で示す。

丸の上にカーソルを重ねると観測所名を参照できる。

次にクリックすると気象観測と天気予報を参照できる。

マップの切り替え:黒色「×」印の緑ボタンをクリックして拡大、「-」印の緑ボタンをクリックして縮小、緑色の三角印をクリックして隣りの地図に切り替え


METAR-TAF: